createdAt,value
2019-02-05T00:00:46.006Z,5.30
2019-02-05T00:01:45.998Z,5.20
2019-02-05T00:02:45.979Z,5.50
2019-02-05T00:03:45.987Z,5.10
2019-02-05T00:04:45.966Z,4.80
2019-02-05T00:05:45.955Z,5.10
2019-02-05T00:06:45.965Z,5.10
2019-02-05T00:07:45.936Z,5.10
2019-02-05T00:08:45.937Z,5.20
2019-02-05T00:09:45.908Z,5.10
2019-02-05T00:10:45.907Z,5.20
2019-02-05T00:11:45.909Z,5.00
2019-02-05T00:12:45.875Z,5.20
2019-02-05T00:13:45.861Z,4.80
2019-02-05T00:14:45.861Z,4.90
2019-02-05T00:15:45.851Z,4.70
2019-02-05T00:16:45.859Z,5.30
2019-02-05T00:17:45.830Z,5.30
2019-02-05T00:18:45.817Z,4.80
2019-02-05T00:19:45.800Z,4.90
2019-02-05T00:20:45.799Z,5.00
2019-02-05T00:21:45.800Z,5.40
2019-02-05T00:22:45.782Z,5.50
2019-02-05T00:23:45.765Z,5.40
2019-02-05T00:24:45.761Z,5.10
2019-02-05T00:25:45.744Z,5.90
2019-02-05T00:26:45.754Z,5.80
2019-02-05T00:27:45.926Z,5.60
2019-02-05T00:28:45.705Z,5.90
2019-02-05T00:29:45.690Z,5.70
2019-02-05T00:30:45.685Z,5.90
2019-02-05T00:31:45.691Z,5.40
2019-02-05T00:32:45.661Z,5.90
2019-02-05T00:33:45.649Z,5.90
2019-02-05T00:34:45.640Z,5.50
2019-02-05T00:35:45.617Z,5.70
2019-02-05T00:36:45.631Z,6.00
2019-02-05T00:37:45.613Z,5.50
2019-02-05T00:38:45.603Z,6.20
2019-02-05T00:39:45.582Z,6.20
2019-02-05T00:40:45.565Z,6.20
2019-02-05T00:41:45.581Z,6.70
2019-02-05T00:42:45.559Z,6.40
2019-02-05T00:43:45.543Z,6.50
2019-02-05T00:44:45.537Z,6.20
2019-02-05T00:45:45.566Z,6.70
2019-02-05T00:46:45.526Z,6.80
2019-02-05T00:47:45.519Z,6.70
2019-02-05T00:48:45.489Z,6.80
2019-02-05T00:49:45.478Z,6.70
2019-02-05T00:50:45.474Z,6.80
2019-02-05T00:51:45.473Z,6.50
2019-02-05T00:52:45.447Z,7.20
2019-02-05T00:53:45.430Z,7.00
2019-02-05T00:54:45.425Z,6.80
2019-02-05T00:55:45.411Z,7.00
2019-02-05T00:56:45.419Z,7.50
2019-02-05T00:57:45.402Z,7.50
2019-02-05T00:58:45.370Z,7.70
2019-02-05T00:59:45.367Z,7.50
2019-02-05T01:00:45.347Z,7.20
2019-02-05T01:01:45.370Z,7.60
2019-02-05T01:02:45.341Z,7.90
2019-02-05T01:03:45.319Z,7.90
2019-02-05T01:04:45.313Z,7.90
2019-02-05T01:05:45.315Z,8.00
2019-02-05T01:06:45.311Z,7.60
2019-02-05T01:07:45.286Z,7.90
2019-02-05T01:08:45.264Z,7.90
2019-02-05T01:09:45.260Z,8.00
2019-02-05T01:10:45.238Z,8.00
2019-02-05T01:11:45.262Z,8.30
2019-02-05T01:12:45.234Z,8.30
2019-02-05T01:13:45.214Z,8.40
2019-02-05T01:14:45.208Z,7.90
2019-02-05T01:15:45.199Z,8.70
2019-02-05T01:16:45.202Z,8.10
2019-02-05T01:17:45.169Z,8.30
2019-02-05T01:18:45.165Z,8.00
2019-02-05T01:19:45.150Z,8.90
2019-02-05T01:20:45.130Z,8.20
2019-02-05T01:21:45.152Z,8.30
2019-02-05T01:22:45.136Z,8.40
2019-02-05T01:23:45.111Z,8.50
2019-02-05T01:24:45.099Z,8.70
2019-02-05T01:25:45.080Z,9.30
2019-02-05T01:26:45.103Z,8.50
2019-02-05T01:27:45.057Z,9.30
2019-02-05T01:28:45.048Z,9.30
2019-02-05T01:29:45.048Z,9.00
2019-02-05T01:31:54.238Z,8.40
2019-02-05T01:32:55.198Z,9.30
2019-02-05T01:33:55.189Z,9.60
2019-02-05T01:34:55.188Z,9.20
2019-02-05T01:35:55.172Z,9.30
2019-02-05T01:36:55.189Z,9.50
2019-02-05T01:37:55.167Z,9.90
2019-02-05T01:38:55.147Z,8.80
2019-02-05T01:39:55.139Z,9.30
2019-02-05T01:40:55.126Z,9.30
2019-02-05T01:41:55.143Z,10.10
2019-02-05T01:42:55.103Z,9.80
2019-02-05T01:43:55.091Z,9.80
2019-02-05T01:44:55.075Z,9.50
2019-02-05T01:45:55.059Z,9.60
2019-02-05T01:46:55.068Z,10.50
2019-02-05T01:47:55.053Z,10.20
2019-02-05T01:48:55.025Z,10.90
2019-02-05T01:49:55.023Z,9.70
2019-02-05T01:50:55.007Z,11.10
2019-02-05T01:51:55.002Z,11.10
2019-02-05T01:52:54.997Z,10.70
2019-02-05T01:53:54.980Z,10.90
2019-02-05T01:54:54.966Z,11.50
2019-02-05T01:55:54.967Z,10.90
2019-02-05T01:56:54.949Z,11.30
2019-02-05T01:57:54.959Z,11.20
2019-02-05T01:58:54.927Z,12.00
2019-02-05T01:59:54.915Z,11.90
2019-02-05T02:00:54.907Z,11.90
2019-02-05T02:01:54.900Z,11.60
2019-02-05T02:02:54.902Z,11.80
2019-02-05T02:03:54.873Z,12.30
2019-02-05T02:04:54.866Z,12.80
2019-02-05T02:05:54.856Z,12.70
2019-02-05T02:06:54.840Z,12.70
2019-02-05T02:07:54.845Z,12.60
2019-02-05T02:08:54.820Z,12.80
2019-02-05T02:09:54.803Z,13.30
2019-02-05T02:10:54.803Z,13.00
2019-02-05T02:11:54.781Z,13.30
2019-02-05T02:12:54.925Z,12.70
2019-02-05T02:13:54.778Z,14.20
2019-02-05T02:14:55.467Z,13.40
2019-02-05T02:15:54.735Z,13.10
2019-02-05T02:16:54.734Z,13.80
2019-02-05T02:17:54.748Z,14.30
2019-02-05T02:18:54.723Z,13.50
2019-02-05T02:19:54.689Z,13.90
2019-02-05T02:20:54.691Z,13.00
2019-02-05T02:21:54.676Z,14.00
2019-02-05T02:22:54.684Z,14.10
2019-02-05T02:23:54.664Z,13.40
2019-02-05T02:24:54.645Z,14.10
2019-02-05T02:25:54.638Z,13.20
2019-02-05T02:26:54.616Z,13.10
2019-02-05T02:27:54.631Z,14.00
2019-02-05T02:28:54.595Z,13.10
2019-02-05T02:29:54.587Z,14.30
2019-02-05T02:30:54.581Z,13.30
2019-02-05T02:31:54.570Z,14.40
2019-02-05T02:32:54.597Z,14.00
2019-02-05T02:33:54.548Z,13.70
2019-02-05T02:34:54.535Z,15.00
2019-02-05T02:35:54.543Z,14.20
2019-02-05T02:36:54.516Z,13.40
2019-02-05T02:37:54.515Z,13.30
2019-02-05T02:38:54.510Z,13.70
2019-02-05T02:39:54.485Z,13.40
2019-02-05T02:40:54.481Z,13.30
2019-02-05T02:41:54.461Z,14.10
2019-02-05T02:42:54.447Z,14.40
2019-02-05T02:43:54.453Z,13.90
2019-02-05T02:44:54.433Z,14.50
2019-02-05T02:45:54.415Z,13.50
2019-02-05T02:46:54.406Z,13.80
2019-02-05T02:47:54.397Z,13.70
2019-02-05T02:48:54.394Z,14.50
2019-02-05T02:49:54.376Z,13.90
2019-02-05T02:50:54.357Z,13.90
2019-02-05T02:51:54.355Z,13.60
2019-02-05T02:52:54.330Z,13.50
2019-02-05T02:53:54.351Z,14.10
2019-02-05T02:54:54.324Z,14.10
2019-02-05T02:55:54.308Z,14.00
2019-02-05T02:57:04.510Z,13.60
2019-02-05T02:57:54.284Z,13.40
2019-02-05T02:58:54.285Z,13.90
2019-02-05T02:59:54.267Z,14.20
2019-02-05T03:00:54.253Z,14.50
2019-02-05T03:01:54.248Z,14.00
2019-02-05T03:02:54.236Z,14.20
2019-02-05T03:03:54.243Z,15.10
2019-02-05T03:04:54.208Z,14.20
2019-02-05T03:05:54.197Z,14.90
2019-02-05T03:06:54.193Z,14.40
2019-02-05T03:07:54.180Z,14.30
2019-02-05T03:08:54.194Z,14.20
2019-02-05T03:09:54.154Z,13.90
2019-02-05T03:10:54.143Z,14.30
2019-02-05T03:11:54.123Z,14.90
2019-02-05T03:12:54.120Z,13.90
2019-02-05T03:13:54.135Z,13.90
2019-02-05T03:14:54.099Z,13.90
2019-02-05T03:15:54.087Z,13.10
2019-02-05T03:16:54.076Z,14.20
2019-02-05T03:17:54.068Z,13.70
2019-02-05T03:18:54.081Z,13.80
2019-02-05T03:19:54.054Z,14.50
2019-02-05T03:20:54.039Z,14.30
2019-02-05T03:21:54.014Z,14.50
2019-02-05T03:22:54.027Z,13.70
2019-02-05T03:23:54.005Z,13.90
2019-02-05T03:24:54.006Z,13.90
2019-02-05T03:25:53.983Z,13.60
2019-02-05T03:26:53.973Z,14.40
2019-02-05T03:27:54.391Z,13.90
2019-02-05T03:28:53.962Z,14.30
2019-02-05T03:29:53.966Z,13.50
2019-02-05T03:30:53.977Z,13.30
2019-02-05T03:33:03.131Z,12.50
2019-02-05T03:34:04.100Z,12.90
2019-02-05T03:35:04.111Z,13.90
2019-02-05T03:36:04.083Z,13.70
2019-02-05T03:37:04.074Z,14.10
2019-02-05T03:38:04.066Z,13.70
2019-02-05T03:39:04.051Z,14.00
2019-02-05T03:40:04.042Z,14.20
2019-02-05T03:41:04.035Z,14.10
2019-02-05T03:42:04.013Z,13.20
2019-02-05T03:43:04.000Z,13.10
2019-02-05T03:44:04.013Z,13.80
2019-02-05T03:45:03.979Z,14.10
2019-02-05T03:46:03.988Z,14.20
2019-02-05T03:47:03.964Z,13.70
2019-02-05T03:48:03.962Z,15.00
2019-02-05T03:49:03.936Z,14.00
2019-02-05T03:50:03.944Z,13.90
2019-02-05T03:51:03.939Z,15.10
2019-02-05T03:52:03.922Z,13.90
2019-02-05T03:53:03.903Z,13.70
2019-02-05T03:54:03.889Z,13.80
2019-02-05T03:55:03.885Z,13.80
2019-02-05T03:56:03.895Z,13.80
2019-02-05T03:57:03.867Z,14.20
2019-02-05T03:58:03.835Z,13.90
2019-02-05T03:59:03.828Z,13.10
2019-02-05T04:00:03.825Z,14.00
2019-02-05T04:01:03.828Z,13.60
2019-02-05T04:02:03.817Z,13.60
2019-02-05T04:03:03.784Z,13.90
2019-02-05T04:04:03.785Z,14.00
2019-02-05T04:05:03.764Z,13.70
2019-02-05T04:06:03.774Z,14.00
2019-02-05T04:07:03.745Z,13.50
2019-02-05T04:08:03.738Z,13.60
2019-02-05T04:09:03.730Z,13.80
2019-02-05T04:10:03.720Z,13.00
2019-02-05T04:11:03.721Z,13.30
2019-02-05T04:12:03.700Z,13.50
2019-02-05T04:13:03.698Z,13.30
2019-02-05T04:14:03.674Z,13.70
2019-02-05T04:15:03.660Z,13.60
2019-02-05T04:16:03.671Z,13.80
2019-02-05T04:17:03.645Z,13.80
2019-02-05T04:18:03.624Z,13.20
2019-02-05T04:19:03.623Z,13.30
2019-02-05T04:20:03.608Z,13.50
2019-02-05T04:21:03.614Z,13.20
2019-02-05T04:22:03.587Z,14.10
2019-02-05T04:23:03.565Z,13.20
2019-02-05T04:24:03.570Z,13.40
2019-02-05T04:25:04.354Z,13.50
2019-02-05T04:26:03.559Z,13.80
2019-02-05T04:27:03.540Z,13.80
2019-02-05T04:28:03.526Z,13.00
2019-02-05T04:29:03.548Z,13.30
2019-02-05T04:30:03.529Z,13.60
2019-02-05T04:31:03.512Z,13.60
2019-02-05T04:32:03.479Z,13.50
2019-02-05T04:33:03.465Z,12.90
2019-02-05T04:34:03.461Z,13.60
2019-02-05T04:35:03.441Z,12.90
2019-02-05T04:36:03.455Z,14.00
2019-02-05T04:37:03.420Z,13.70
2019-02-05T04:38:03.408Z,13.00
2019-02-05T04:39:03.409Z,13.50
2019-02-05T04:40:03.398Z,13.60
2019-02-05T04:41:03.420Z,13.30
2019-02-05T04:42:03.369Z,13.80
2019-02-05T04:43:03.363Z,14.10
2019-02-05T04:44:03.350Z,13.90
2019-02-05T04:45:03.329Z,13.60
2019-02-05T04:46:03.365Z,13.90
2019-02-05T04:47:03.318Z,13.50
2019-02-05T04:48:03.308Z,13.40
2019-02-05T04:49:03.299Z,14.20
2019-02-05T04:50:03.279Z,13.50
2019-02-05T04:51:03.291Z,13.90
2019-02-05T04:52:03.263Z,14.20
2019-02-05T04:53:03.247Z,13.60
2019-02-05T04:54:03.246Z,13.30
2019-02-05T04:55:03.238Z,13.60
2019-02-05T04:56:03.271Z,14.00
2019-02-05T04:57:03.221Z,13.90
2019-02-05T04:58:03.187Z,14.00
2019-02-05T04:59:03.191Z,13.90
2019-02-05T05:00:03.229Z,14.00
2019-02-05T05:01:03.181Z,13.40
2019-02-05T05:02:03.161Z,13.50
2019-02-05T05:03:03.149Z,14.50
2019-02-05T05:04:03.128Z,13.70
2019-02-05T05:05:03.131Z,14.60
2019-02-05T05:06:03.133Z,14.00
2019-02-05T05:07:03.116Z,14.20
2019-02-05T05:08:03.090Z,14.50
2019-02-05T05:09:03.086Z,14.00
2019-02-05T05:10:03.074Z,14.00
2019-02-05T05:11:03.081Z,13.90
2019-02-05T05:12:03.046Z,14.00
2019-02-05T05:13:03.059Z,13.60
2019-02-05T05:14:03.021Z,14.10
2019-02-05T05:15:03.008Z,15.00
2019-02-05T05:16:03.019Z,14.60
2019-02-05T05:17:02.999Z,14.60
2019-02-05T05:18:02.980Z,15.20
2019-02-05T05:19:02.987Z,14.30
2019-02-05T05:20:02.956Z,14.70
2019-02-05T05:21:02.942Z,14.40
2019-02-05T05:22:02.983Z,14.00
2019-02-05T05:23:02.937Z,14.00
2019-02-05T05:24:02.922Z,14.30
2019-02-05T05:25:02.929Z,14.50
2019-02-05T05:26:02.895Z,14.80
2019-02-05T05:27:02.928Z,14.40
2019-02-05T05:28:10.084Z,15.10
2019-02-05T05:29:02.885Z,15.10
2019-02-05T05:30:02.921Z,13.90
2019-02-05T05:31:02.846Z,14.90
2019-02-05T05:32:02.861Z,14.90
2019-02-05T05:34:12.004Z,16.40
2019-02-05T05:35:12.993Z,15.20
2019-02-05T05:36:12.978Z,15.50
2019-02-05T05:37:13.005Z,15.70
2019-02-05T05:38:12.966Z,15.10
2019-02-05T05:39:12.949Z,16.20
2019-02-05T05:40:12.948Z,15.80
2019-02-05T05:41:12.931Z,16.00
2019-02-05T05:42:12.948Z,15.80
2019-02-05T05:43:12.928Z,15.90
2019-02-05T05:44:12.901Z,16.00
2019-02-05T05:45:12.891Z,16.30
2019-02-05T05:46:12.891Z,15.90
2019-02-05T05:47:12.888Z,16.00
2019-02-05T05:48:12.859Z,16.70
2019-02-05T05:49:12.838Z,16.50
2019-02-05T05:50:12.839Z,16.30
2019-02-05T05:51:12.817Z,17.70
2019-02-05T05:52:12.844Z,16.90
2019-02-05T05:53:12.816Z,17.40
2019-02-05T05:54:12.791Z,17.50
2019-02-05T05:55:12.778Z,17.10
2019-02-05T05:56:12.769Z,18.10
2019-02-05T05:57:12.790Z,19.00
2019-02-05T05:58:22.269Z,18.40
2019-02-05T05:59:12.730Z,18.50
2019-02-05T06:00:12.730Z,18.30
2019-02-05T06:01:12.724Z,18.90
2019-02-05T06:02:12.736Z,17.90
2019-02-05T06:03:12.714Z,18.80
2019-02-05T06:04:12.685Z,19.40
2019-02-05T06:05:12.670Z,18.70
2019-02-05T06:06:12.684Z,19.20
2019-02-05T06:07:12.675Z,19.90
2019-02-05T06:08:12.650Z,19.60
2019-02-05T06:09:12.638Z,20.20
2019-02-05T06:10:12.626Z,20.00
2019-02-05T06:11:12.614Z,20.50
2019-02-05T06:12:12.612Z,19.90
2019-02-05T06:13:12.588Z,20.40
2019-02-05T06:14:12.572Z,21.40
2019-02-05T06:15:12.562Z,20.80
2019-02-05T06:16:12.547Z,21.10
2019-02-05T06:17:12.671Z,21.50
2019-02-05T06:18:12.528Z,22.00
2019-02-05T06:19:12.616Z,22.00
2019-02-05T06:20:12.505Z,22.90
2019-02-05T06:21:13.784Z,21.90
2019-02-05T06:22:12.503Z,21.80
2019-02-05T06:23:12.487Z,22.70
2019-02-05T06:24:12.468Z,23.10
2019-02-05T06:25:12.466Z,23.00
2019-02-05T06:26:12.434Z,22.90
2019-02-05T06:27:12.455Z,23.00
2019-02-05T06:28:12.441Z,22.90
2019-02-05T06:29:12.403Z,23.00
2019-02-05T06:30:12.392Z,23.90
2019-02-05T06:31:12.385Z,23.60
2019-02-05T06:32:12.400Z,24.40
2019-02-05T06:33:12.374Z,22.80
2019-02-05T06:34:12.374Z,23.10
2019-02-05T06:35:13.288Z,24.40
2019-02-05T06:36:12.326Z,24.50
2019-02-05T06:37:12.348Z,23.80
2019-02-05T06:38:12.314Z,24.80
2019-02-05T06:39:12.313Z,24.70
2019-02-05T06:40:12.288Z,24.50
2019-02-05T06:41:12.276Z,25.40
2019-02-05T06:42:12.285Z,25.60
2019-02-05T06:43:12.251Z,25.40
2019-02-05T06:44:12.258Z,26.50
2019-02-05T06:45:12.274Z,26.80
2019-02-05T06:46:12.237Z,26.80
2019-02-05T06:47:12.230Z,27.30
2019-02-05T06:48:12.197Z,27.30
2019-02-05T06:49:12.250Z,27.40
2019-02-05T06:50:12.310Z,28.10
2019-02-05T06:51:12.189Z,28.10
2019-02-05T06:52:12.277Z,28.00
2019-02-05T06:53:12.152Z,29.10
2019-02-05T06:54:12.201Z,28.70
2019-02-05T06:55:12.433Z,30.00
2019-02-05T06:56:12.134Z,30.90
2019-02-05T06:57:12.116Z,30.40
2019-02-05T06:58:12.088Z,31.60
2019-02-05T06:59:12.114Z,31.60
2019-02-05T07:00:12.082Z,31.10
2019-02-05T07:01:12.066Z,31.80
2019-02-05T07:02:12.250Z,30.70
2019-02-05T07:03:12.124Z,31.10
2019-02-05T07:04:12.090Z,29.90
2019-02-05T07:05:12.028Z,30.50
2019-02-05T07:06:12.138Z,31.50
2019-02-05T07:07:12.004Z,31.80
2019-02-05T07:08:12.469Z,31.60
2019-02-05T07:09:12.039Z,31.30
2019-02-05T07:10:11.967Z,31.90
2019-02-05T07:11:11.957Z,33.10
2019-02-05T07:12:11.950Z,32.60
2019-02-05T07:13:11.947Z,32.30
2019-02-05T07:14:11.995Z,33.30
2019-02-05T07:15:11.903Z,32.10
2019-02-05T07:16:11.936Z,33.50
2019-02-05T07:17:12.063Z,33.20
2019-02-05T07:18:11.910Z,33.10
2019-02-05T07:19:11.881Z,33.80
2019-02-05T07:20:11.846Z,34.20
2019-02-05T07:21:11.864Z,33.80
2019-02-05T07:22:11.848Z,34.10
2019-02-05T07:23:11.847Z,31.70
2019-02-05T07:24:11.835Z,35.30
2019-02-05T07:25:11.813Z,33.80
2019-02-05T07:26:12.502Z,35.70
2019-02-05T07:27:11.775Z,35.00
2019-02-05T07:28:11.788Z,34.40
2019-02-05T07:29:11.754Z,35.30
2019-02-05T07:30:11.745Z,35.20
2019-02-05T07:31:11.744Z,34.50
2019-02-05T07:32:11.751Z,35.90
2019-02-05T07:33:11.746Z,35.70
2019-02-05T07:35:21.670Z,31.80
2019-02-05T07:36:22.987Z,34.90
2019-02-05T07:37:22.542Z,35.30
2019-02-05T07:38:23.008Z,35.60
2019-02-05T07:39:22.504Z,35.60
2019-02-05T07:40:22.599Z,36.30
2019-02-05T07:41:22.548Z,36.90
2019-02-05T07:42:22.491Z,36.30
2019-02-05T07:43:22.588Z,36.40
2019-02-05T07:44:22.470Z,37.70
2019-02-05T07:45:22.499Z,36.20
2019-02-05T07:46:23.174Z,37.60
2019-02-05T07:47:23.486Z,37.40
2019-02-05T07:48:22.420Z,35.00
2019-02-05T07:49:22.468Z,36.80
2019-02-05T07:50:22.381Z,37.30
2019-02-05T07:51:22.529Z,36.70
2019-02-05T07:52:22.352Z,35.70
2019-02-05T07:53:22.362Z,37.20
2019-02-05T07:54:22.387Z,36.30
2019-02-05T07:55:22.332Z,35.70
2019-02-05T07:56:22.425Z,36.70
2019-02-05T07:57:22.474Z,36.40
2019-02-05T07:58:22.318Z,36.40
2019-02-05T07:59:22.402Z,36.90
2019-02-05T08:00:22.363Z,34.60
2019-02-05T08:01:22.265Z,36.20
2019-02-05T08:02:22.258Z,36.10
2019-02-05T08:03:22.271Z,36.90
2019-02-05T08:04:22.239Z,35.50
2019-02-05T08:05:22.239Z,37.00
2019-02-05T08:06:22.276Z,34.90
2019-02-05T08:07:22.198Z,36.80
2019-02-05T08:08:22.283Z,36.30
2019-02-05T08:09:22.204Z,36.60
2019-02-05T08:10:22.201Z,37.40
2019-02-05T08:11:22.151Z,36.50
2019-02-05T08:12:22.150Z,36.60
2019-02-05T08:13:22.168Z,35.80
2019-02-05T08:14:22.126Z,35.30
2019-02-05T08:15:22.121Z,35.70
2019-02-05T08:16:22.128Z,34.70
2019-02-05T08:17:22.110Z,36.20
2019-02-05T08:18:22.248Z,36.10
2019-02-05T08:19:22.089Z,37.00
2019-02-05T08:20:22.081Z,37.20
2019-02-05T08:21:22.065Z,36.40
2019-02-05T08:22:22.090Z,36.40
2019-02-05T08:23:22.150Z,35.90
2019-02-05T08:24:22.029Z,35.40
2019-02-05T08:25:22.012Z,36.20
2019-02-05T08:26:22.060Z,36.50
2019-02-05T08:27:21.995Z,36.00
2019-02-05T08:28:21.966Z,36.40
2019-02-05T08:29:22.046Z,36.30
2019-02-05T08:30:21.985Z,36.30
2019-02-05T08:31:21.963Z,36.50
2019-02-05T08:32:21.964Z,37.60
2019-02-05T08:33:22.071Z,38.60
2019-02-05T08:34:22.056Z,38.10
2019-02-05T08:35:22.001Z,37.30
2019-02-05T08:36:21.954Z,38.50
2019-02-05T08:37:21.898Z,39.90
2019-02-05T08:38:21.895Z,38.40
2019-02-05T08:39:21.884Z,39.60
2019-02-05T08:40:21.919Z,39.70
2019-02-05T08:41:21.862Z,40.90
2019-02-05T08:42:21.906Z,40.40
2019-02-05T08:43:21.814Z,39.70
2019-02-05T08:44:21.828Z,41.00
2019-02-05T08:45:21.817Z,40.60
2019-02-05T08:46:21.774Z,39.60
2019-02-05T08:47:21.810Z,40.10
2019-02-05T08:48:21.925Z,40.30
2019-02-05T08:49:21.746Z,42.00
2019-02-05T08:50:21.762Z,38.10
2019-02-05T08:51:21.736Z,36.20
2019-02-05T08:52:21.723Z,37.90
2019-02-05T08:53:21.728Z,40.50
2019-02-05T08:54:21.716Z,39.10
2019-02-05T08:55:21.901Z,41.00
2019-02-05T08:56:21.996Z,39.00
2019-02-05T08:57:21.664Z,39.00
2019-02-05T08:58:30.562Z,39.90
2019-02-05T08:59:21.639Z,39.80
2019-02-05T09:00:21.662Z,40.30
2019-02-05T09:01:21.635Z,39.70
2019-02-05T09:02:21.606Z,40.40
2019-02-05T09:03:21.605Z,39.70
2019-02-05T09:04:21.586Z,42.20
2019-02-05T09:05:22.710Z,41.60
2019-02-05T09:06:21.625Z,42.10
2019-02-05T09:07:21.616Z,40.90
2019-02-05T09:08:21.740Z,42.10
2019-02-05T09:09:21.695Z,38.90
2019-02-05T09:10:21.581Z,39.60
2019-02-05T09:11:21.927Z,40.60
2019-02-05T09:12:21.808Z,40.30
2019-02-05T09:13:21.833Z,41.80
2019-02-05T09:14:21.497Z,40.80
2019-02-05T09:15:29.082Z,39.10
2019-02-05T09:16:21.515Z,39.70
2019-02-05T09:17:24.259Z,39.10
2019-02-05T09:18:21.478Z,41.10
2019-02-05T09:19:21.440Z,40.40
2019-02-05T09:20:21.566Z,40.80
2019-02-05T09:21:21.976Z,40.30
2019-02-05T09:22:21.416Z,40.80
2019-02-05T09:23:21.441Z,38.40
2019-02-05T09:24:21.559Z,36.50
2019-02-05T09:25:21.538Z,38.20
2019-02-05T09:26:21.432Z,36.50
2019-02-05T09:27:21.356Z,38.80
2019-02-05T09:28:21.425Z,39.50
2019-02-05T09:29:21.327Z,40.90
2019-02-05T09:30:21.543Z,37.90
2019-02-05T09:31:21.427Z,40.40
2019-02-05T09:32:21.314Z,42.00
2019-02-05T09:33:21.348Z,39.40
2019-02-05T09:34:21.410Z,41.20
2019-02-05T09:36:30.500Z,35.50
2019-02-05T09:37:31.552Z,36.90
2019-02-05T09:38:31.482Z,37.00
2019-02-05T09:39:31.426Z,36.00
2019-02-05T09:40:31.418Z,36.10
2019-02-05T09:41:31.461Z,36.20
2019-02-05T09:42:31.405Z,35.00
2019-02-05T09:43:31.387Z,35.90
2019-02-05T09:44:31.644Z,35.40
2019-02-05T09:45:31.366Z,35.40
2019-02-05T09:46:31.431Z,34.20
2019-02-05T09:47:31.349Z,34.50
2019-02-05T09:48:31.327Z,35.20
2019-02-05T09:49:31.309Z,33.90
2019-02-05T09:50:43.711Z,33.30
2019-02-05T09:51:31.313Z,32.50
2019-02-05T09:52:31.298Z,33.20
2019-02-05T09:53:31.297Z,33.50
2019-02-05T09:54:31.276Z,33.90
2019-02-05T09:55:31.245Z,34.40
2019-02-05T09:56:32.225Z,34.20
2019-02-05T09:57:31.716Z,35.10
2019-02-05T09:58:31.261Z,32.90
2019-02-05T09:59:31.257Z,34.30
2019-02-05T10:00:31.738Z,34.00
2019-02-05T10:01:31.692Z,33.90
2019-02-05T10:02:31.899Z,33.60
2019-02-05T10:03:31.930Z,33.90
2019-02-05T10:04:31.182Z,33.50
2019-02-05T10:05:31.240Z,33.70
2019-02-05T10:06:31.158Z,34.00
2019-02-05T10:07:31.631Z,34.90
2019-02-05T10:08:31.201Z,35.70
2019-02-05T10:09:31.240Z,33.70
2019-02-05T10:10:31.082Z,34.20
2019-02-05T10:11:31.213Z,35.10
2019-02-05T10:12:31.112Z,34.90
2019-02-05T10:13:31.061Z,35.60
2019-02-05T10:14:31.056Z,33.30
2019-02-05T10:15:31.111Z,35.00
2019-02-05T10:16:31.018Z,34.90
2019-02-05T10:17:31.002Z,36.30
2019-02-05T10:18:31.000Z,35.70
2019-02-05T10:19:30.983Z,35.80
2019-02-05T10:20:30.969Z,35.60
2019-02-05T10:21:31.021Z,35.50
2019-02-05T10:22:30.951Z,34.90
2019-02-05T10:23:31.010Z,35.80
2019-02-05T10:24:30.953Z,35.10
2019-02-05T10:25:30.948Z,35.20
2019-02-05T10:26:30.913Z,35.60
2019-02-05T10:27:30.900Z,35.30
2019-02-05T10:28:30.918Z,34.50
2019-02-05T10:29:30.879Z,34.60
2019-02-05T10:30:30.968Z,34.70
2019-02-05T10:31:30.862Z,35.10
2019-02-05T10:32:30.846Z,34.90
2019-02-05T10:33:30.852Z,34.20
2019-02-05T10:34:34.091Z,36.90
2019-02-05T10:35:30.882Z,35.40
2019-02-05T10:36:30.809Z,36.50
2019-02-05T10:37:30.850Z,36.40
2019-02-05T10:38:30.792Z,35.90
2019-02-05T10:39:30.770Z,34.70
2019-02-05T10:40:30.758Z,36.80
2019-02-05T10:41:30.746Z,36.50
2019-02-05T10:42:30.727Z,35.50
2019-02-05T10:43:30.744Z,35.70
2019-02-05T10:44:30.713Z,33.90
2019-02-05T10:45:30.709Z,34.50
2019-02-05T10:46:30.712Z,34.20
2019-02-05T10:47:30.680Z,33.20
2019-02-05T10:48:30.707Z,34.70
2019-02-05T10:49:30.691Z,33.20
2019-02-05T10:50:30.642Z,31.50
2019-02-05T10:51:30.672Z,32.10
2019-02-05T10:52:30.932Z,29.50
2019-02-05T10:53:30.644Z,30.00
2019-02-05T10:54:30.641Z,29.30
2019-02-05T10:55:30.660Z,29.60
2019-02-05T10:56:30.606Z,29.60
2019-02-05T10:57:30.629Z,29.80
2019-02-05T10:58:30.585Z,30.20
2019-02-05T10:59:30.649Z,30.40
2019-02-05T11:00:30.536Z,31.60
2019-02-05T11:01:30.562Z,29.60
2019-02-05T11:02:30.536Z,28.00
2019-02-05T11:03:30.534Z,29.20
2019-02-05T11:04:30.663Z,29.50
2019-02-05T11:05:30.489Z,30.40
2019-02-05T11:06:30.487Z,30.10
2019-02-05T11:07:30.509Z,30.60
2019-02-05T11:08:30.466Z,28.30
2019-02-05T11:09:30.500Z,29.50
2019-02-05T11:10:30.490Z,29.00
2019-02-05T11:11:30.660Z,28.20
2019-02-05T11:12:30.458Z,28.80
2019-02-05T11:13:30.635Z,26.30
2019-02-05T11:14:30.477Z,26.00
2019-02-05T11:15:30.382Z,25.70
2019-02-05T11:16:30.397Z,22.60
2019-02-05T11:17:30.349Z,24.10
2019-02-05T11:18:30.358Z,23.70
2019-02-05T11:19:30.336Z,23.40
2019-02-05T11:20:30.314Z,25.40
2019-02-05T11:21:30.314Z,26.20
2019-02-05T11:22:30.298Z,25.70
2019-02-05T11:23:31.227Z,26.30
2019-02-05T11:24:30.882Z,28.00
2019-02-05T11:25:30.253Z,27.00
2019-02-05T11:26:30.305Z,26.60
2019-02-05T11:27:30.247Z,28.10
2019-02-05T11:28:30.237Z,26.20
2019-02-05T11:29:30.423Z,28.70
2019-02-05T11:30:30.253Z,29.20
2019-02-05T11:31:30.208Z,27.70
2019-02-05T11:32:30.199Z,29.40
2019-02-05T11:33:30.369Z,27.40
2019-02-05T11:34:30.236Z,27.80
2019-02-05T11:35:30.261Z,28.50
2019-02-05T11:37:39.376Z,25.50
2019-02-05T11:38:40.334Z,28.20
2019-02-05T11:39:40.706Z,28.90
2019-02-05T11:40:40.348Z,29.20
2019-02-05T11:41:40.306Z,26.70
2019-02-05T11:42:40.352Z,25.90
2019-02-05T11:43:40.373Z,26.60
2019-02-05T11:44:40.321Z,26.70
2019-02-05T11:45:40.288Z,27.60
2019-02-05T11:46:40.371Z,26.90
2019-02-05T11:47:40.347Z,28.30
2019-02-05T11:48:40.347Z,28.20
2019-02-05T11:49:40.339Z,29.20
2019-02-05T11:50:40.312Z,29.40
2019-02-05T11:51:40.180Z,28.50
2019-02-05T11:52:40.184Z,28.40
2019-02-05T11:53:40.176Z,32.20
2019-02-05T11:54:40.238Z,32.10
2019-02-05T11:55:40.156Z,29.30
2019-02-05T11:56:40.175Z,29.90
2019-02-05T11:57:40.193Z,31.50
2019-02-05T11:58:40.119Z,31.50
2019-02-05T11:59:40.142Z,31.40
2019-02-05T12:00:40.191Z,31.40
2019-02-05T12:01:40.111Z,30.80
2019-02-05T12:02:40.066Z,30.40
2019-02-05T12:03:40.086Z,31.50
2019-02-05T12:04:40.075Z,31.70
2019-02-05T12:05:40.065Z,29.30
2019-02-05T12:06:40.057Z,31.20
2019-02-05T12:07:40.030Z,31.80
2019-02-05T12:08:40.059Z,30.40
2019-02-05T12:09:39.988Z,31.70
2019-02-05T12:10:40.058Z,30.60
2019-02-05T12:11:39.994Z,31.20
2019-02-05T12:12:40.005Z,31.30
2019-02-05T12:13:39.964Z,32.10
2019-02-05T12:14:39.977Z,31.40
2019-02-05T12:15:40.038Z,32.20
2019-02-05T12:16:40.000Z,31.90
2019-02-05T12:17:39.988Z,31.10
2019-02-05T12:18:39.908Z,30.50
2019-02-05T12:19:39.916Z,30.70
2019-02-05T12:20:39.939Z,31.20
2019-02-05T12:21:39.887Z,32.30
2019-02-05T12:22:39.994Z,32.00
2019-02-05T12:23:39.844Z,32.30
2019-02-05T12:24:39.851Z,32.00
2019-02-05T12:25:39.876Z,32.00
2019-02-05T12:26:39.836Z,33.40
2019-02-05T12:27:39.809Z,32.50
2019-02-05T12:28:39.815Z,32.20
2019-02-05T12:29:39.795Z,32.60
2019-02-05T12:30:44.870Z,33.40
2019-02-05T12:31:39.813Z,33.40
2019-02-05T12:32:39.762Z,32.70
2019-02-05T12:33:39.796Z,32.20
2019-02-05T12:34:39.719Z,32.40
2019-02-05T12:35:39.741Z,30.70
2019-02-05T12:36:39.723Z,31.30
2019-02-05T12:37:39.695Z,31.10
2019-02-05T12:38:39.671Z,30.70
2019-02-05T12:39:39.673Z,29.60
2019-02-05T12:40:39.678Z,29.60
2019-02-05T12:41:39.653Z,29.20
2019-02-05T12:42:39.636Z,30.00
2019-02-05T12:43:39.653Z,29.40
2019-02-05T12:44:39.614Z,29.80
2019-02-05T12:45:39.649Z,29.50
2019-02-05T12:46:39.606Z,29.50
2019-02-05T12:47:39.606Z,28.40
2019-02-05T12:48:39.579Z,28.50
2019-02-05T12:49:39.571Z,26.30
2019-02-05T12:50:39.578Z,26.70
2019-02-05T12:51:39.559Z,26.90
2019-02-05T12:52:39.566Z,27.10
2019-02-05T12:53:39.527Z,28.90
2019-02-05T12:54:39.502Z,28.00
2019-02-05T12:55:39.520Z,28.10
2019-02-05T12:56:39.514Z,28.70
2019-02-05T12:57:39.470Z,29.80
2019-02-05T12:58:39.488Z,29.70
2019-02-05T12:59:39.482Z,30.90
2019-02-05T13:00:39.462Z,31.10
2019-02-05T13:01:39.440Z,31.40
2019-02-05T13:02:39.455Z,31.60
2019-02-05T13:03:39.412Z,31.30